Time;durP1;ratioP1;P1;durP2;ratioP2;P2;SDS_P1;SDS_P2;PMS_P1;PMS_P2;Temp;Humidity;BMP_temperature;BMP_pressure;BME280_temperature;BME280_humidity;BME280_pressure;Samples;Min_cycle;Max_cycle;Signal;HPM_P1;HPM_P2
2022/10/09 00:01:25;;;;;;;11.13;3.85;;;12.90;99.90;;;;;;5109384;28;20044;-54
2022/10/09 00:03:53;;;;;;;8.25;3.72;;;12.80;99.90;;;;;;5068072;28;20388;-55
2022/10/09 00:06:24;;;;;;;10.90;3.13;;;12.80;99.90;;;;;;5068408;28;20362;-56
2022/10/09 00:08:50;;;;;;;9.55;3.63;;;12.80;99.90;;;;;;5068191;28;20036;-55
2022/10/09 00:11:22;;;;;;;10.43;3.20;;;12.80;99.90;;;;;;5068439;28;20032;-54
2022/10/09 00:13:49;;;;;;;7.57;3.65;;;12.70;99.90;;;;;;5067876;28;20025;-55
2022/10/09 00:16:17;;;;;;;6.93;3.25;;;12.70;99.90;;;;;;5067431;28;20033;-55
2022/10/09 00:18:42;;;;;;;12.20;3.92;;;12.70;99.90;;;;;;5067646;28;20024;-55
2022/10/09 00:21:22;;;;;;;11.35;4.00;;;12.70;99.90;;;;;;5068005;28;20040;-56
2022/10/09 00:23:48;;;;;;;9.25;3.75;;;12.70;99.90;;;;;;5068009;28;20518;-56
2022/10/09 00:26:14;;;;;;;11.00;4.17;;;12.70;99.90;;;;;;5067965;28;20024;-55
2022/10/09 00:28:40;;;;;;;13.65;4.82;;;12.70;99.90;;;;;;5067363;28;20123;-55
2022/10/09 00:31:07;;;;;;;10.15;4.07;;;12.70;99.90;;;;;;5068231;28;20035;-55
2022/10/09 00:33:33;;;;;;;;;;;12.60;99.90;;;;;;5068329;28;20028;-55
2022/10/09 00:36:12;;;;;;;9.48;3.20;;;12.60;99.90;;;;;;5066546;28;19908;-56
2022/10/09 00:38:38;;;;;;;13.68;3.88;;;12.60;99.90;;;;;;5068255;28;20031;-56
2022/10/09 00:41:04;;;;;;;17.20;3.65;;;12.60;99.90;;;;;;5067930;28;20610;-54
2022/10/09 00:43:38;;;;;;;8.32;3.28;;;12.60;99.90;;;;;;5068411;28;20033;-55
2022/10/09 00:46:04;;;;;;;13.15;4.57;;;12.50;99.90;;;;;;5068440;28;20028;-56
2022/10/09 00:48:30;;;;;;;10.10;3.78;;;12.50;99.90;;;;;;5068284;28;20365;-54
2022/10/09 00:50:58;;;;;;;7.95;3.38;;;12.50;99.90;;;;;;5071935;28;20085;-55
2022/10/09 00:53:27;;;;;;;9.35;4.20;;;12.50;99.90;;;;;;5072088;28;20029;-55
2022/10/09 00:55:53;;;;;;;13.73;4.35;;;12.50;99.90;;;;;;5072081;28;20037;-55
2022/10/09 00:58:20;;;;;;;8.45;3.45;;;12.40;99.90;;;;;;5054267;28;20118;-55
2022/10/09 01:00:46;;;;;;;;;;;12.40;99.90;;;;;;5072861;28;20032;-56
2022/10/09 01:03:12;;;;;;;13.38;4.93;;;12.40;99.90;;;;;;5095889;28;19903;-56
2022/10/09 01:05:54;;;;;;;13.50;4.97;;;12.30;99.90;;;;;;5113131;28;20034;-54
2022/10/09 01:08:37;;;;;;;18.95;6.82;;;12.30;99.90;;;;;;5112661;28;20027;-55
2022/10/09 01:11:13;;;;;;;15.07;5.60;;;12.30;99.90;;;;;;5112253;28;20035;-56
2022/10/09 01:13:53;;;;;;;22.08;6.05;;;12.20;99.90;;;;;;5093733;28;20020;-54
2022/10/09 01:16:26;;;;;;;24.42;8.25;;;12.20;99.90;;;;;;5111936;28;20090;-54
2022/10/09 01:18:56;;;;;;;24.60;8.75;;;12.10;99.90;;;;;;5111621;28;20051;-54
2022/10/09 01:21:39;;;;;;;29.02;8.50;;;12.00;99.90;;;;;;5111460;28;20693;-55
2022/10/09 01:24:21;;;;;;;20.63;7.00;;;12.00;99.90;;;;;;5111889;28;20537;-54
2022/10/09 01:27:09;;;;;;;23.20;6.78;;;11.70;99.90;;;;;;5112039;28;20548;-55
2022/10/09 01:29:41;;;;;;;15.65;5.43;;;11.70;99.90;;;;;;5112719;28;20114;-55
2022/10/09 01:32:09;;;;;;;18.13;5.95;;;11.50;99.90;;;;;;5112615;28;20032;-55
2022/10/09 01:34:37;;;;;;;14.25;5.35;;;11.40;99.90;;;;;;5112394;28;20020;-55
2022/10/09 01:37:04;;;;;;;15.15;5.60;;;11.50;99.90;;;;;;5112337;28;20027;-55
2022/10/09 01:39:32;;;;;;;15.40;5.57;;;11.50;99.90;;;;;;5112309;28;20020;-55
2022/10/09 01:41:58;;;;;;;15.77;7.32;;;11.50;99.90;;;;;;5112312;28;20036;-57
2022/10/09 01:44:30;;;;;;;14.45;6.68;;;11.50;99.90;;;;;;5112065;28;20031;-56
2022/10/09 01:46:56;;;;;;;16.45;7.75;;;11.50;99.90;;;;;;5111421;28;20040;-56
2022/10/09 01:49:30;;;;;;;14.17;6.83;;;11.40;99.90;;;;;;5076326;28;20557;-55
2022/10/09 01:52:03;;;;;;;13.23;6.60;;;11.50;99.90;;;;;;5111354;28;20115;-56
2022/10/09 01:54:38;;;;;;;15.15;6.80;;;11.50;99.90;;;;;;5111510;28;20734;-56
2022/10/09 01:57:07;;;;;;;14.98;6.90;;;11.50;99.90;;;;;;5111293;28;20037;-55
2022/10/09 01:59:38;;;;;;;18.75;7.03;;;11.40;99.90;;;;;;5111230;28;20031;-54
2022/10/09 02:02:06;;;;;;;17.48;7.65;;;11.30;99.90;;;;;;5109934;28;20086;-53
2022/10/09 02:04:32;;;;;;;18.83;8.95;;;11.30;99.90;;;;;;5111070;28;20019;-56
2022/10/09 02:06:58;;;;;;;19.48;8.70;;;11.20;99.90;;;;;;5111946;28;20458;-55
2022/10/09 02:09:29;;;;;;;15.27;6.53;;;11.10;99.90;;;;;;5111539;28;20860;-55
2022/10/09 02:11:59;;;;;;;17.45;6.88;;;11.00;99.90;;;;;;5112293;28;20039;-54
2022/10/09 02:14:24;;;;;;;15.88;5.88;;;11.00;99.90;;;;;;5111590;28;20076;-55
2022/10/09 02:17:06;;;;;;;14.55;6.57;;;10.90;99.90;;;;;;5111596;28;20024;-55
2022/10/09 02:19:40;;;;;;;13.52;6.80;;;10.90;99.90;;;;;;5111354;28;20602;-55
2022/10/09 02:22:19;;;;;;;10.82;5.70;;;10.80;99.90;;;;;;5093253;28;20085;-55
2022/10/09 02:24:45;;;;;;;13.63;5.45;;;10.80;99.90;;;;;;5111454;28;20024;-55
2022/10/09 02:27:13;;;;;;;14.57;5.80;;;10.70;99.90;;;;;;5111478;28;20492;-56
2022/10/09 02:29:41;;;;;;;13.07;5.38;;;10.80;99.90;;;;;;5111566;28;20027;-55
2022/10/09 02:32:07;;;;;;;17.95;6.30;;;10.80;99.90;;;;;;5111481;28;20030;-55
2022/10/09 02:34:33;;;;;;;16.50;6.15;;;10.70;99.90;;;;;;5111475;28;20035;-55
2022/10/09 02:37:00;;;;;;;11.25;5.28;;;10.70;99.90;;;;;;5108667;28;20024;-55
2022/10/09 02:39:25;;;;;;;16.50;5.82;;;10.80;99.90;;;;;;5090522;28;20043;-55
2022/10/09 02:41:51;;;;;;;13.32;5.30;;;10.70;99.90;;;;;;5109009;28;20031;-56
2022/10/09 02:44:17;;;;;;;14.43;5.63;;;10.70;99.90;;;;;;5100258;28;20463;-56
2022/10/09 02:46:42;;;;;;;12.98;5.65;;;10.60;99.90;;;;;;5090405;28;20200;-56
2022/10/09 02:49:08;;;;;;;11.60;5.07;;;10.60;99.90;;;;;;5090690;28;20113;-55
2022/10/09 02:51:34;;;;;;;12.10;5.07;;;10.60;99.90;;;;;;5090948;28;20036;-55
2022/10/09 02:53:59;;;;;;;13.10;4.70;;;10.50;99.90;;;;;;5090586;28;20024;-55
2022/10/09 02:56:25;;;;;;;11.77;5.18;;;10.50;99.90;;;;;;5097288;28;20028;-55
2022/10/09 02:58:51;;;;;;;14.90;5.28;;;10.50;99.90;;;;;;5110774;28;20027;-55
2022/10/09 03:01:17;;;;;;;14.43;4.85;;;10.40;99.90;;;;;;5110552;28;20032;-56
2022/10/09 03:03:43;;;;;;;11.10;4.95;;;10.30;99.90;;;;;;5110715;28;20030;-55
2022/10/09 03:06:11;;;;;;;11.40;4.55;;;10.30;99.90;;;;;;5091723;28;20020;-56
2022/10/09 03:08:40;;;;;;;12.05;5.05;;;10.30;99.90;;;;;;5109904;28;20138;-55
2022/10/09 03:11:06;;;;;;;13.25;4.80;;;10.30;99.90;;;;;;5091261;28;20027;-55
2022/10/09 03:13:32;;;;;;;10.20;4.47;;;10.30;99.90;;;;;;5109544;28;20028;-56
2022/10/09 03:16:10;;;;;;;13.57;4.80;;;10.20;99.90;;;;;;5092144;28;20546;-55
2022/10/09 03:18:36;;;;;;;;;;;10.20;99.90;;;;;;5110726;28;20031;-54
2022/10/09 03:21:06;;;;;;;25.23;6.50;;;10.20;99.90;;;;;;5089644;28;19927;-54
2022/10/09 03:23:33;;;;;;;13.10;4.70;;;10.10;99.90;;;;;;5088914;28;20020;-55
2022/10/09 03:26:00;;;;;;;20.75;5.10;;;10.10;99.90;;;;;;5089073;28;20038;-55
2022/10/09 03:28:26;;;;;;;20.60;6.60;;;10.00;99.90;;;;;;5089177;28;20020;-54
2022/10/09 03:30:52;;;;;;;17.65;6.25;;;9.80;99.90;;;;;;5089904;28;20107;-56
2022/10/09 03:33:19;;;;;;;12.32;5.47;;;9.80;99.90;;;;;;5089709;28;20082;-56
2022/10/09 03:35:46;;;;;;;17.25;6.03;;;9.80;99.90;;;;;;5089757;28;20024;-55
2022/10/09 03:38:12;;;;;;;17.95;5.53;;;9.70;99.90;;;;;;5089781;28;20044;-56
2022/10/09 03:40:38;;;;;;;10.10;5.13;;;9.60;99.90;;;;;;5089986;28;20039;-56
2022/10/09 03:43:04;;;;;;;9.27;5.03;;;9.50;99.90;;;;;;5089630;28;20093;-55
2022/10/09 03:45:29;;;;;;;11.95;5.35;;;9.50;99.90;;;;;;5089650;28;20020;-55
2022/10/09 03:47:55;;;;;;;14.65;5.15;;;9.50;99.90;;;;;;5089858;28;20430;-56
2022/10/09 03:50:21;;;;;;;16.00;6.00;;;9.60;99.90;;;;;;5089008;28;20115;-56
2022/10/09 03:52:46;;;;;;;15.10;5.47;;;9.50;99.90;;;;;;5088527;28;20024;-55
2022/10/09 03:55:12;;;;;;;12.13;5.80;;;9.60;99.90;;;;;;5088540;28;20024;-55
2022/10/09 03:57:38;;;;;;;16.48;6.03;;;9.60;99.90;;;;;;5088551;28;20036;-55
2022/10/09 04:00:05;;;;;;;15.13;5.65;;;9.60;99.90;;;;;;5089275;28;20032;-57
2022/10/09 04:02:31;;;;;;;12.10;5.32;;;9.60;99.90;;;;;;5089217;28;20042;-56
2022/10/09 04:04:57;;;;;;;15.13;4.78;;;9.60;99.90;;;;;;5089119;28;20391;-56
2022/10/09 04:07:23;;;;;;;12.02;5.32;;;9.70;99.90;;;;;;5089150;28;20020;-57
2022/10/09 04:09:49;;;;;;;14.70;6.35;;;9.70;99.90;;;;;;5070659;28;20123;-56
2022/10/09 04:12:14;;;;;;;13.57;6.05;;;9.70;99.90;;;;;;5088602;28;20058;-56
2022/10/09 04:14:40;;;;;;;15.75;5.50;;;9.80;99.90;;;;;;5088269;28;20035;-57
2022/10/09 04:17:06;;;;;;;17.33;6.63;;;9.80;99.90;;;;;;5088265;28;20032;-57
2022/10/09 04:19:32;;;;;;;11.70;5.00;;;9.80;99.90;;;;;;5088471;28;20063;-55
2022/10/09 04:21:57;;;;;;;15.23;5.85;;;9.80;99.90;;;;;;5070883;28;20038;-54
2022/10/09 04:24:23;;;;;;;18.38;5.85;;;9.80;99.90;;;;;;5088192;28;20023;-56
2022/10/09 04:26:49;;;;;;;13.43;4.72;;;9.80;99.90;;;;;;5069894;28;20085;-58
2022/10/09 04:29:14;;;;;;;11.02;4.68;;;9.80;99.90;;;;;;5088341;28;20035;-57
2022/10/09 04:31:40;;;;;;;9.57;5.00;;;9.80;99.90;;;;;;5088324;28;20028;-56
2022/10/09 04:34:05;;;;;;;15.48;5.50;;;9.80;99.90;;;;;;5103989;28;20020;-56
2022/10/09 04:36:31;;;;;;;9.68;4.88;;;9.80;99.90;;;;;;5109393;28;20727;-54
2022/10/09 04:38:58;;;;;;;17.10;5.40;;;9.80;99.90;;;;;;5109121;28;20031;-56
2022/10/09 04:41:23;;;;;;;13.20;5.38;;;9.80;99.90;;;;;;5109821;28;20126;-57
2022/10/09 04:43:53;;;;;;;12.07;5.70;;;9.80;99.90;;;;;;5109480;28;20114;-56
2022/10/09 04:46:19;;;;;;;18.60;6.07;;;9.80;99.90;;;;;;5109323;28;20075;-58
2022/10/09 04:48:45;;;;;;;12.70;6.10;;;9.80;99.90;;;;;;5109357;28;20493;-55
2022/10/09 04:51:12;;;;;;;9.32;5.07;;;9.80;99.90;;;;;;5108620;28;20019;-58
2022/10/09 04:53:38;;;;;;;8.73;5.40;;;9.70;99.90;;;;;;5108431;28;20115;-57
2022/10/09 04:56:07;;;;;;;13.52;5.65;;;9.70;99.90;;;;;;5108412;28;20042;-56
2022/10/09 04:58:39;;;;;;;18.98;7.90;;;9.70;99.90;;;;;;5108298;28;20035;-56
2022/10/09 05:01:25;;;;;;;12.50;6.75;;;9.70;99.90;;;;;;5108654;28;20057;-57
2022/10/09 05:03:52;;;;;;;14.75;7.55;;;9.70;99.90;;;;;;5090903;28;20631;-58
2022/10/09 05:06:18;;;;;;;17.10;7.68;;;9.80;99.90;;;;;;5109083;28;20106;-58
2022/10/09 05:08:45;;;;;;;17.27;8.00;;;9.80;99.90;;;;;;5108970;28;20463;-55
2022/10/09 05:11:16;;;;;;;15.87;7.53;;;9.90;99.90;;;;;;5109052;28;20028;-57
2022/10/09 05:13:45;;;;;;;16.25;7.32;;;9.80;99.90;;;;;;5108919;28;20016;-55
2022/10/09 05:16:13;;;;;;;16.75;6.50;;;9.80;99.90;;;;;;5108723;28;20039;-57
2022/10/09 05:18:47;;;;;;;14.40;7.10;;;9.80;99.90;;;;;;5108885;28;20516;-59
2022/10/09 05:21:14;;;;;;;14.32;6.03;;;9.70;99.90;;;;;;5109148;28;20067;-55
2022/10/09 05:23:39;;;;;;;13.25;5.03;;;9.80;99.90;;;;;;5108786;28;20332;-57
2022/10/09 05:26:08;;;;;;;13.57;5.15;;;9.70;99.90;;;;;;5108787;28;20478;-56
2022/10/09 05:28:35;;;;;;;13.85;6.90;;;9.70;99.90;;;;;;5109312;28;20034;-56
2022/10/09 05:31:05;;;;;;;11.55;6.07;;;9.70;99.90;;;;;;5108805;28;20497;-55
2022/10/09 05:33:31;;;;;;;12.85;5.50;;;9.80;99.90;;;;;;5098671;28;20032;-56
2022/10/09 05:35:59;;;;;;;15.15;5.50;;;9.90;99.90;;;;;;5088338;28;20525;-56
2022/10/09 05:38:26;;;;;;;15.40;6.28;;;9.80;99.90;;;;;;5091324;28;20024;-57
2022/10/09 05:41:03;;;;;;;13.27;5.18;;;9.70;99.90;;;;;;5091025;28;20036;-56
2022/10/09 05:43:35;;;;;;;17.60;6.55;;;9.80;99.90;;;;;;5091385;28;20036;-55
2022/10/09 05:46:14;;;;;;;12.48;6.90;;;9.70;99.90;;;;;;5091227;28;20375;-56
2022/10/09 05:48:43;;;;;;;15.85;7.00;;;9.80;99.90;;;;;;5091813;28;20024;-57
2022/10/09 05:51:20;;;;;;;17.75;7.65;;;9.80;99.90;;;;;;5091607;28;20039;-57
2022/10/09 05:53:47;;;;;;;21.20;7.90;;;9.80;99.90;;;;;;5091686;28;20522;-57
2022/10/09 05:56:18;;;;;;;15.70;7.07;;;9.80;99.90;;;;;;5091829;28;20039;-55
2022/10/09 05:58:48;;;;;;;18.90;8.15;;;9.80;99.90;;;;;;5091602;28;20035;-56
2022/10/09 06:01:15;;;;;;;17.00;8.20;;;9.70;99.90;;;;;;5091873;28;20028;-55
2022/10/09 06:03:40;;;;;;;15.10;6.70;;;9.70;99.90;;;;;;5091182;28;20031;-56
2022/10/09 06:06:10;;;;;;;9.80;6.15;;;9.70;99.90;;;;;;5090856;28;20020;-55
2022/10/09 06:08:36;;;;;;;14.82;7.63;;;9.80;99.90;;;;;;5090731;28;20043;-55
2022/10/09 06:11:17;;;;;;;16.88;6.35;;;9.80;99.90;;;;;;5090377;28;20472;-57
2022/10/09 06:13:43;;;;;;;14.23;6.63;;;9.90;99.90;;;;;;5090588;28;20035;-55
2022/10/09 06:16:12;;;;;;;17.00;6.17;;;9.90;99.90;;;;;;5090993;28;20106;-55
2022/10/09 06:18:38;;;;;;;18.92;7.75;;;9.90;99.90;;;;;;5073325;28;20111;-57
2022/10/09 06:21:05;;;;;;;16.48;6.18;;;9.90;99.90;;;;;;5072967;28;20039;-53
2022/10/09 06:23:31;;;;;;;15.90;6.10;;;10.00;99.90;;;;;;5091134;28;20055;-54
2022/10/09 06:26:03;;;;;;;16.40;6.68;;;10.00;99.90;;;;;;5091016;28;20059;-56
2022/10/09 06:28:30;;;;;;;18.10;6.38;;;10.00;99.90;;;;;;5091498;28;20078;-56
2022/10/09 06:31:05;;;;;;;19.55;6.90;;;9.90;99.90;;;;;;5091151;28;20064;-55
2022/10/09 06:33:32;;;;;;;17.50;6.70;;;9.80;99.90;;;;;;5100600;28;20023;-56
2022/10/09 06:36:00;;;;;;;17.67;6.93;;;9.80;99.90;;;;;;5111485;28;20134;-56
2022/10/09 06:38:26;;;;;;;12.93;6.13;;;9.80;99.90;;;;;;5111347;28;20545;-55
2022/10/09 06:40:51;;;;;;;17.60;7.05;;;9.90;99.90;;;;;;5093049;28;20387;-55
2022/10/09 06:43:17;;;;;;;21.58;8.65;;;9.90;99.90;;;;;;5111423;28;20020;-56
2022/10/09 06:45:43;;;;;;;19.95;8.10;;;9.90;99.90;;;;;;5110857;28;20023;-56
2022/10/09 06:48:08;;;;;;;23.23;8.55;;;9.90;99.90;;;;;;5110987;28;20058;-55
2022/10/09 06:50:35;;;;;;;22.50;9.43;;;10.00;99.90;;;;;;5092175;28;20531;-56
2022/10/09 06:53:03;;;;;;;20.40;7.00;;;10.10;99.90;;;;;;5110559;28;20115;-56
2022/10/09 06:55:28;;;;;;;11.73;6.53;;;10.10;99.90;;;;;;5110678;28;20514;-57
2022/10/09 06:57:54;;;;;;;14.57;6.68;;;10.20;99.90;;;;;;5109951;28;20028;-54
2022/10/09 07:00:19;;;;;;;15.63;7.32;;;10.20;99.90;;;;;;5110419;28;20118;-57
2022/10/09 07:02:45;;;;;;;16.85;6.65;;;10.20;99.90;;;;;;5110750;28;20046;-56
2022/10/09 07:05:11;;;;;;;14.18;7.38;;;10.30;99.90;;;;;;5110604;28;20063;-56
2022/10/09 07:07:40;;;;;;;16.63;6.97;;;10.30;99.90;;;;;;5110736;28;20102;-56
2022/10/09 07:10:06;;;;;;;13.35;7.47;;;10.30;99.90;;;;;;5110491;28;20043;-55
2022/10/09 07:12:36;;;;;;;20.77;9.00;;;10.20;99.90;;;;;;5110637;28;20033;-56
2022/10/09 07:15:04;;;;;;;17.77;7.88;;;10.20;99.90;;;;;;5110486;28;20092;-55
2022/10/09 07:17:30;;;;;;;16.35;8.57;;;10.30;99.90;;;;;;5110458;28;20026;-57
2022/10/09 07:19:55;;;;;;;14.05;8.50;;;10.30;99.90;;;;;;5110146;28;20410;-55
2022/10/09 07:22:21;;;;;;;15.35;9.07;;;10.20;99.90;;;;;;5110029;28;20035;-55
2022/10/09 07:24:49;;;;;;;14.25;8.07;;;10.20;99.90;;;;;;5110445;28;20031;-56
2022/10/09 07:27:14;;;;;;;17.65;8.60;;;10.30;99.90;;;;;;5091125;28;20148;-54
2022/10/09 07:29:40;;;;;;;16.70;8.13;;;10.40;99.90;;;;;;5109780;28;20106;-55
2022/10/09 07:32:06;;;;;;;16.00;8.52;;;10.40;99.90;;;;;;5109526;28;20483;-56
2022/10/09 07:34:31;;;;;;;13.82;8.38;;;10.30;99.90;;;;;;5091808;28;20020;-56
2022/10/09 07:36:57;;;;;;;12.45;8.00;;;10.30;99.90;;;;;;5097391;28;20031;-57
2022/10/09 07:39:22;;;;;;;20.90;9.07;;;10.40;99.90;;;;;;5096068;28;20225;-56
2022/10/09 07:41:51;;;;;;;15.63;9.00;;;10.50;99.90;;;;;;5090036;28;20471;-55
2022/10/09 07:44:17;;;;;;;17.75;12.98;;;10.60;99.90;;;;;;5089049;28;20031;-56
2022/10/09 07:46:43;;;;;;;23.17;12.80;;;10.50;99.90;;;;;;5089155;28;20063;-55
2022/10/09 07:49:09;;;;;;;22.17;13.48;;;10.50;99.90;;;;;;5089273;28;20468;-56
2022/10/09 07:51:35;;;;;;;20.65;12.27;;;10.50;99.90;;;;;;5071638;28;20046;-57
2022/10/09 07:54:01;;;;;;;18.73;11.05;;;10.60;99.90;;;;;;5089034;28;20669;-56
2022/10/09 07:56:32;;;;;;;22.83;10.95;;;10.60;99.90;;;;;;5088816;28;20708;-56
2022/10/09 07:59:03;;;;;;;19.85;10.98;;;10.60;99.90;;;;;;5093402;28;20032;-55
2022/10/09 08:01:31;;;;;;;19.77;9.57;;;10.70;99.90;;;;;;5096479;28;20031;-54
2022/10/09 08:03:57;;;;;;;20.05;8.32;;;10.70;99.90;;;;;;5094246;28;20016;-55
2022/10/09 08:06:24;;;;;;;16.75;8.45;;;10.90;99.90;;;;;;5094065;28;20055;-57
2022/10/09 08:08:51;;;;;;;14.88;8.27;;;11.50;99.90;;;;;;5099563;28;20046;-56
2022/10/09 08:11:19;;;;;;;17.10;8.95;;;11.80;99.90;;;;;;5105192;28;20082;-56
2022/10/09 08:13:47;;;;;;;16.95;10.32;;;12.00;99.90;;;;;;5109559;28;20529;-55
2022/10/09 08:16:12;;;;;;;15.35;7.82;;;12.10;99.90;;;;;;5109033;28;20023;-55
2022/10/09 08:18:38;;;;;;;17.17;6.22;;;12.10;99.90;;;;;;5107680;28;20031;-54
2022/10/09 08:21:07;;;;;;;13.00;5.28;;;12.20;99.90;;;;;;5090961;28;20042;-53
2022/10/09 08:23:33;;;;;;;13.68;5.90;;;12.30;99.90;;;;;;5109311;28;20023;-55
2022/10/09 08:25:59;;;;;;;12.80;5.65;;;12.50;99.90;;;;;;5109509;28;20020;-56
2022/10/09 08:28:25;;;;;;;16.88;4.97;;;12.70;99.90;;;;;;5109230;28;20406;-55
2022/10/09 08:30:51;;;;;;;123.28;84.25;;;13.10;99.90;;;;;;5108477;28;20024;-55
2022/10/09 08:33:22;;;;;;;14.25;7.60;;;13.00;99.90;;;;;;5087665;28;20118;-54
2022/10/09 08:35:48;;;;;;;10.35;6.00;;;13.10;99.90;;;;;;5090752;28;20031;-54
2022/10/09 08:38:14;;;;;;;11.82;5.95;;;13.00;99.90;;;;;;5097257;28;20032;-55
2022/10/09 08:40:57;;;;;;;16.08;5.82;;;12.90;99.90;;;;;;5097072;28;20391;-55
2022/10/09 08:43:33;;;;;;;13.00;5.32;;;12.80;99.90;;;;;;5104332;28;20115;-56
2022/10/09 08:46:11;;;;;;;14.60;5.43;;;13.30;99.90;;;;;;5098814;28;20337;-54
2022/10/09 08:48:42;;;;;;;11.25;5.55;;;14.40;99.90;;;;;;5085726;28;20545;-54
2022/10/09 08:51:17;;;;;;;12.55;6.53;;;14.50;99.90;;;;;;5084695;28;20020;-55
2022/10/09 08:53:50;;;;;;;13.70;5.25;;;14.30;99.90;;;;;;5087429;28;20028;-54
2022/10/09 08:56:16;;;;;;;13.18;4.68;;;14.80;99.90;;;;;;5087283;28;20039;-55
2022/10/09 08:58:43;;;;;;;11.13;4.32;;;14.40;99.90;;;;;;5069111;28;20024;-55
2022/10/09 09:01:16;;;;;;;7.85;3.63;;;14.60;99.90;;;;;;5084991;28;20032;-55
2022/10/09 09:04:06;;;;;;;7.88;2.97;;;15.20;99.90;;;;;;5087325;28;20112;-55
2022/10/09 09:06:44;;;;;;;11.82;3.72;;;15.60;99.90;;;;;;5099976;28;20024;-55
2022/10/09 09:09:09;;;;;;;13.45;3.58;;;16.60;99.90;;;;;;5086741;28;20126;-54
2022/10/09 09:12:04;;;;;;;6.38;2.85;;;16.00;99.90;;;;;;5102522;27;20462;-56
2022/10/09 09:14:36;;;;;;;9.77;3.65;;;17.70;99.90;;;;;;5099548;28;20035;-54
2022/10/09 09:17:30;;;;;;;13.65;4.03;;;17.40;99.90;;;;;;5093869;28;20036;-55
2022/10/09 09:20:07;;;;;;;8.18;2.67;;;17.40;99.90;;;;;;5096150;28;20052;-55
2022/10/09 09:22:35;;;;;;;;;;;17.80;99.90;;;;;;5102113;28;20081;-56
2022/10/09 09:25:27;;;;;;;10.30;2.28;;;17.90;99.90;;;;;;5065773;28;20053;-55
2022/10/09 09:27:58;;;;;;;10.35;2.78;;;17.40;99.90;;;;;;5085037;28;20036;-55
2022/10/09 09:30:36;;;;;;;9.40;3.03;;;18.50;99.40;;;;;;5100120;28;20055;-56
2022/10/09 09:33:10;;;;;;;8.40;2.70;;;17.70;96.50;;;;;;5103072;28;20024;-54
2022/10/09 09:36:07;;;;;;;10.15;2.05;;;18.10;97.00;;;;;;5101661;28;20039;-56
2022/10/09 09:38:35;;;;;;;5.88;1.80;;;18.50;95.40;;;;;;5081643;28;20032;-55
2022/10/09 09:41:03;;;;;;;6.70;2.58;;;18.50;98.90;;;;;;5098201;28;20479;-55
2022/10/09 09:43:28;;;;;;;5.50;1.85;;;18.40;97.40;;;;;;5101429;28;20099;-54
2022/10/09 09:45:58;;;;;;;7.38;1.60;;;19.00;94.70;;;;;;5100469;28;20434;-56
2022/10/09 09:48:24;;;;;;;8.18;2.05;;;18.30;94.20;;;;;;5106539;28;20501;-56
2022/10/09 09:50:52;;;;;;;8.85;1.70;;;17.40;95.00;;;;;;5104611;28;20024;-54
2022/10/09 09:53:26;;;;;;;5.93;1.70;;;17.60;96.30;;;;;;5102972;28;20046;-54
2022/10/09 09:55:53;;;;;;;3.88;1.50;;;17.90;93.50;;;;;;5101039;28;20024;-54
2022/10/09 09:58:20;;;;;;;5.55;2.03;;;19.00;94.90;;;;;;5102206;28;20030;-55
2022/10/09 10:00:57;;;;;;;8.25;2.10;;;19.10;92.80;;;;;;5100708;28;20058;-54
2022/10/09 10:03:24;;;;;;;9.90;2.10;;;18.90;93.20;;;;;;5097682;28;20552;-55
2022/10/09 10:05:50;;;;;;;8.13;2.27;;;19.00;93.50;;;;;;5082434;28;20032;-56
2022/10/09 10:08:31;;;;;;;6.35;1.98;;;18.60;94.00;;;;;;5097949;28;20282;-54
2022/10/09 10:11:04;;;;;;;6.85;1.70;;;18.50;93.70;;;;;;5093140;28;20103;-54
2022/10/09 10:13:37;;;;;;;5.60;1.50;;;18.30;93.80;;;;;;5089421;28;20051;-53
2022/10/09 10:16:05;;;;;;;7.43;1.58;;;18.60;92.90;;;;;;5089669;28;20422;-55
2022/10/09 10:18:38;;;;;;;5.03;1.80;;;18.10;92.90;;;;;;5091445;28;20032;-53
2022/10/09 10:21:07;;;;;;;4.07;1.60;;;18.40;91.90;;;;;;5067848;28;20040;-55
2022/10/09 10:23:45;;;;;;;6.15;1.88;;;18.70;93.30;;;;;;5069747;28;20046;-54
2022/10/09 10:26:16;;;;;;;5.22;2.13;;;18.10;93.10;;;;;;5076086;28;20043;-54
2022/10/09 10:28:48;;;;;;;7.22;1.83;;;18.90;92.80;;;;;;5080838;28;20024;-54
2022/10/09 10:31:30;;;;;;;8.32;2.28;;;18.70;91.30;;;;;;5066734;28;20387;-54
2022/10/09 10:33:56;;;;;;;9.63;1.85;;;18.80;91.80;;;;;;5079994;28;20135;-54
2022/10/09 10:36:24;;;;;;;6.90;2.03;;;19.00;91.10;;;;;;5078802;28;20128;-54
2022/10/09 10:39:03;;;;;;;6.20;1.60;;;18.90;90.20;;;;;;5079796;28;20028;-54
2022/10/09 10:41:41;;;;;;;6.90;2.05;;;18.30;90.30;;;;;;5077723;28;20119;-54
2022/10/09 10:44:17;;;;;;;4.38;1.52;;;18.80;90.10;;;;;;5077220;28;20021;-54
2022/10/09 10:47:00;;;;;;;5.78;1.35;;;18.80;90.20;;;;;;5074774;28;20153;-54
2022/10/09 10:49:26;;;;;;;7.72;1.65;;;20.00;89.10;;;;;;5076434;28;20882;-54
2022/10/09 10:52:01;;;;;;;5.70;1.58;;;18.90;85.00;;;;;;5078531;28;20020;-53
2022/10/09 10:54:43;;;;;;;4.65;1.58;;;19.40;88.20;;;;;;5075607;28;20379;-54
2022/10/09 10:57:20;;;;;;;5.20;1.55;;;20.30;90.40;;;;;;5077922;28;20020;-54
2022/10/09 10:59:59;;;;;;;8.82;1.98;;;20.50;87.30;;;;;;5082088;28;20033;-55
2022/10/09 11:02:49;;;;;;;7.63;1.90;;;21.00;87.80;;;;;;5075348;28;20036;-55
2022/10/09 11:05:37;;;;;;;9.60;2.65;;;21.20;85.80;;;;;;5078116;28;20099;-54
2022/10/09 11:08:35;;;;;;;4.60;1.58;;;21.20;82.80;;;;;;5077581;28;20115;-54
2022/10/09 11:11:13;;;;;;;12.02;2.55;;;21.60;80.60;;;;;;5080962;28;20032;-53
2022/10/09 11:14:04;;;;;;;4.05;1.60;;;21.40;81.60;;;;;;5080244;28;20066;-54
2022/10/09 11:16:38;;;;;;;4.15;1.50;;;21.10;77.70;;;;;;5076321;28;20107;-53
2022/10/09 11:19:26;;;;;;;20.00;9.52;;;20.90;76.70;;;;;;5078797;28;20043;-54
2022/10/09 11:22:05;;;;;;;18.08;8.13;;;20.90;78.10;;;;;;5090127;28;20035;-54
2022/10/09 11:24:52;;;;;;;9.27;2.03;;;20.30;75.50;;;;;;5097972;28;20546;-54
2022/10/09 11:27:26;;;;;;;4.72;1.40;;;20.50;76.70;;;;;;5091705;28;20063;-53
2022/10/09 11:30:00;;;;;;;7.57;2.10;;;20.30;80.90;;;;;;5094587;28;20081;-55
2022/10/09 11:33:13;;;;;;;5.10;2.10;;;20.80;78.00;;;;;;5095306;28;20030;-54
2022/10/09 11:35:47;;;;;;;3.95;1.63;;;20.40;75.30;;;;;;5084626;28;20039;-54
2022/10/09 11:38:25;;;;;;;7.28;1.77;;;20.60;78.10;;;;;;5094726;28;20032;-54
2022/10/09 11:40:50;;;;;;;;;;;20.40;79.80;;;;;;5091261;28;20024;-53
2022/10/09 11:43:25;;;;;;;6.30;1.35;;;20.30;77.10;;;;;;5074662;28;19923;-53
2022/10/09 11:46:02;;;;;;;5.35;1.17;;;20.60;77.80;;;;;;5101891;28;20364;-53
2022/10/09 11:48:34;;;;;;;4.65;1.48;;;20.40;76.60;;;;;;5104648;28;20102;-54
2022/10/09 11:51:10;;;;;;;5.90;2.13;;;20.40;78.30;;;;;;5078870;28;20028;-54
2022/10/09 11:53:37;;;;;;;8.25;1.73;;;20.70;78.80;;;;;;5091651;28;20027;-54
2022/10/09 11:56:02;;;;;;;;;;;20.90;79.60;;;;;;5095592;28;20482;-53
2022/10/09 11:58:28;;;;;;;8.02;1.60;;;20.80;76.10;;;;;;5090922;28;19923;-54
2022/10/09 12:00:56;;;;;;;6.85;1.95;;;20.40;74.30;;;;;;5085618;28;20085;-53
2022/10/09 12:03:34;;;;;;;5.95;1.90;;;19.90;76.70;;;;;;5088809;28;20533;-54
2022/10/09 12:06:15;;;;;;;4.63;1.98;;;19.60;76.40;;;;;;5092475;28;20040;-53
2022/10/09 12:08:53;;;;;;;5.80;1.88;;;18.90;79.50;;;;;;5092519;28;20028;-52
2022/10/09 12:11:19;;;;;;;6.60;1.52;;;18.70;82.60;;;;;;5088360;28;20111;-55
2022/10/09 12:14:06;;;;;;;6.22;1.77;;;18.30;81.60;;;;;;5078697;28;20047;-53
2022/10/09 12:16:35;;;;;;;7.25;1.30;;;18.00;82.30;;;;;;5089888;28;20816;-53
2022/10/09 12:19:05;;;;;;;4.97;1.40;;;17.70;82.20;;;;;;5080082;28;20124;-54
2022/10/09 12:21:38;;;;;;;5.57;1.40;;;18.10;83.20;;;;;;5081432;28;20043;-54
2022/10/09 12:24:06;;;;;;;5.38;1.27;;;18.30;80.30;;;;;;5096737;28;20055;-55
2022/10/09 12:26:34;;;;;;;4.47;1.55;;;18.60;85.80;;;;;;5092816;28;20107;-55
2022/10/09 12:29:01;;;;;;;5.07;1.50;;;18.90;79.50;;;;;;5088833;28;20062;-51
2022/10/09 12:31:34;;;;;;;7.90;2.85;;;19.00;78.10;;;;;;5093687;28;20028;-54
2022/10/09 12:34:05;;;;;;;5.70;1.50;;;19.30;81.20;;;;;;5076947;28;20078;-55
2022/10/09 12:36:32;;;;;;;9.70;1.35;;;19.30;77.70;;;;;;5100457;28;20027;-54
2022/10/09 12:39:21;;;;;;;5.05;1.50;;;19.20;77.50;;;;;;5096038;28;20050;-55
2022/10/09 12:41:55;;;;;;;6.40;1.55;;;19.10;76.60;;;;;;5094280;28;20040;-54
2022/10/09 12:44:29;;;;;;;3.92;1.38;;;19.30;75.90;;;;;;5097644;28;20106;-54
2022/10/09 12:47:00;;;;;;;3.95;1.75;;;19.20;75.50;;;;;;5100420;28;20111;-54
2022/10/09 12:49:26;;;;;;;7.78;2.28;;;18.90;76.20;;;;;;5101268;28;20023;-53
2022/10/09 12:51:55;;;;;;;5.32;1.70;;;18.80;75.30;;;;;;5103048;28;20027;-54
2022/10/09 12:54:23;;;;;;;24.38;2.17;;;18.90;76.10;;;;;;5102479;28;20082;-55
2022/10/09 12:56:51;;;;;;;8.00;2.10;;;18.90;77.80;;;;;;5104440;28;20057;-53
2022/10/09 12:59:17;;;;;;;;;;;19.20;77.80;;;;;;5090821;28;20081;-54